Miami, NM (87729)

11:24 PM MDT on August 19, 2014 (GMT -0600)
Raton Municipal-Crews | Change Station
CLOSE
Current Station
Airport
Location: Raton,
Elevation: 6352 ft
Nearby Weather Stations

Elev 6352 ft 36.74 °N, 104.50 °W | Updated 31 minutes ago

Clear
Clear
63 °F
Feels Like 63 °F
N
7
Wind Variable Wind from North

Today
High -- | Low -- °F
--% Chance of Precip.
Yesterday
High -- | Low -- °F
Precip. -- in
6:20 AM 7:44 PM
Waning Crescent, 24% visible
Pressure 29.76 in
Visibility 10.0 miles
Clouds Clear
Dew Point 52 °F
Humidity 67%
Rainfall 0.00 in
Snow Depth Not available.
UV 0 out of 12
Pollen 10.00 out of 12
Air Quality Not available.
Flu Activity Not available.
METAR KRTN 200453Z AUTO 01006KT 10SM CLR 17/11 A3003 RMK AO2 SLP076 T01720111 TSNO

More Conditions Fewer Conditions

Pressure 29.76 in
Visibility 10.0 miles
Clouds Clear
Dew Point 52 °F
Humidity 67%
Rainfall 0.00 in
Snow Depth Not available.
UV 0 out of 12
Pollen 10.00 out of 12
Air Quality Not available.
Flu Activity Not available.
METAR KRTN 200453Z AUTO 01006KT 10SM CLR 17/11 A3003 RMK AO2 SLP076 T01720111 TSNO

More Conditions Fewer Conditions

Nowcast | as of 10:01 PM MDT on August 19, 2014

Showers will continue through late evening. Showers in northern Santa Fe and southeastern Rio Arriba County will move across Chamita...Espanola...Chimayo...Truchas...Embudo...Rinconada...Ojo Sarco...Picuris Pueblo...Rodarte...and Tres Ritos. More showers over western Mora County will move across Chacon...Holman...Mora... Guadalupita...Morphy Lake State Park... Angel Fire...Black Lake... and across state roads 434 and 422. Expect occasional lightning and rainfall up to a tenth of an inch in heavier showers. Elsewhere... expect light rainfall of less than a tenth of an inch in scattered showers through late evening.

×

10-Day Weather Forecast

Almanac

Astronomy

Aug. 19, 2014 Rise Set
Actual Time 6:20 AM MDT 7:44 PM MDT
Civil Twilight 5:53 AM MDT 8:11 PM MDT
Nautical Twilight 5:20 AM MDT 8:43 PM MDT
Astronomical Twilight 4:46 AM MDT 9:17 PM MDT
Moon 1:17 AM MDT (8/19) 3:40 PM MDT (8/19)
Length of Visible Light 14h 18m
Length of Day
13h 24m
Tomorrow will be 2m 5s shorter.
Waning Crescent, 24% of the Moon is Illuminated
Aug 20
Waning Crescent
Aug 25
New
Sep 2
First Quarter
Sep 8
Full
Sep 15
Last Quarter

Yesterday's Extremes

State Highs State Lows

Community

WunderPhotos

Upload Photos

1,745,592 photos uploaded!

Nearby

Snow Depth

Station Depth Elevation
Tolby 0 in 10180 ft
Red River Pass #2 0 in 9850 ft
Gallegos Peak 0 in 9800 ft
North Costilla 0 in 10600 ft
Wesner Springs 1 in 11120 ft

Earthquake Activity

City Distance Mag. Time & Date
No recent earthquake activity has been reported nearby.
Minimum magnitude displayed is 2.5.

Coastal Water Temperatures

Place Temperature
No Stations Reporting

Nearby Weather Stations